Time;durP1;ratioP1;P1;durP2;ratioP2;P2;SDS_P1;SDS_P2;PMS_P1;PMS_P2;Temp;Humidity;BMP_temperature;BMP_pressure;BME280_temperature;BME280_humidity;BME280_pressure;Samples;Min_cycle;Max_cycle;Signal;HPM_P1;HPM_P2
2023/06/25 00:02:19;;;;;;;14.63;13.13;;;20.70;99.90;;;;;;4982164;28;20818;-72
2023/06/25 00:04:46;;;;;;;15.03;12.27;;;20.70;99.90;;;;;;4983193;28;21034;-74
2023/06/25 00:07:13;;;;;;;15.30;12.40;;;20.70;99.90;;;;;;4980195;28;20458;-74
2023/06/25 00:09:40;;;;;;;18.93;13.07;;;20.60;99.90;;;;;;4973008;28;20460;-72
2023/06/25 00:12:09;;;;;;;13.70;12.37;;;20.60;99.90;;;;;;4982220;28;20532;-72
2023/06/25 00:14:36;;;;;;;14.93;12.73;;;20.60;99.90;;;;;;4982075;28;20542;-72
2023/06/25 00:17:03;;;;;;;16.60;14.40;;;20.50;99.90;;;;;;4979982;28;20461;-71
2023/06/25 00:19:31;;;;;;;16.27;13.57;;;20.40;99.90;;;;;;4982355;28;20519;-74
2023/06/25 00:21:58;;;;;;;17.53;13.30;;;20.40;99.90;;;;;;4973899;28;20537;-71
2023/06/25 00:24:25;;;;;;;16.30;13.13;;;20.30;99.90;;;;;;4976129;28;20471;-74
2023/06/25 00:26:51;;;;;;;13.57;12.20;;;20.40;99.90;;;;;;4974697;28;20551;-72
2023/06/25 00:29:18;;;;;;;16.27;13.37;;;20.40;99.90;;;;;;4977233;28;20534;-73
2023/06/25 00:31:45;;;;;;;13.00;11.57;;;20.40;99.90;;;;;;4973637;28;20496;-73
2023/06/25 00:34:12;;;;;;;16.10;13.00;;;20.40;99.90;;;;;;4977456;28;20507;-73
2023/06/25 00:36:41;;;;;;;15.23;11.90;;;20.30;99.90;;;;;;4980565;28;20444;-73
2023/06/25 00:39:08;;;;;;;13.97;12.57;;;20.30;99.90;;;;;;4986029;28;21004;-72
2023/06/25 00:41:35;;;;;;;15.33;13.70;;;20.30;99.90;;;;;;4986708;28;20448;-72
2023/06/25 00:44:06;;;;;;;16.60;12.73;;;20.20;99.90;;;;;;4985168;28;20464;-72
2023/06/25 00:46:33;;;;;;;13.97;12.13;;;20.10;99.90;;;;;;4974623;28;20828;-72
2023/06/25 00:49:05;;;;;;;18.27;14.13;;;20.00;99.90;;;;;;4982388;28;20472;-73
2023/06/25 00:51:35;;;;;;;16.30;13.87;;;20.00;99.90;;;;;;4983055;28;20498;-72
2023/06/25 00:54:05;;;;;;;17.27;14.30;;;20.00;99.90;;;;;;4980545;28;20466;-71
2023/06/25 00:56:33;;;;;;;14.90;13.40;;;20.00;99.90;;;;;;4981176;28;20883;-72
2023/06/25 00:59:02;;;;;;;17.57;14.00;;;20.00;99.90;;;;;;4975125;28;20896;-72
2023/06/25 01:01:36;;;;;;;19.90;13.93;;;19.90;99.90;;;;;;4983544;28;20538;-71
2023/06/25 01:04:07;;;;;;;14.90;13.27;;;19.90;99.90;;;;;;4979190;28;20468;-72
2023/06/25 01:06:40;;;;;;;18.13;13.13;;;19.90;99.90;;;;;;4978441;28;20541;-73
2023/06/25 01:09:11;;;;;;;15.50;13.87;;;20.00;99.90;;;;;;4978982;28;20468;-72
2023/06/25 01:11:38;;;;;;;16.63;13.00;;;19.90;99.90;;;;;;4985599;28;20912;-72
2023/06/25 01:14:05;;;;;;;15.70;13.67;;;19.90;99.90;;;;;;4990538;28;20502;-72
2023/06/25 01:16:32;;;;;;;14.67;13.13;;;19.90;99.90;;;;;;4969889;28;20544;-72
2023/06/25 01:19:02;;;;;;;19.40;15.33;;;19.80;99.90;;;;;;4982769;28;20481;-72
2023/06/25 01:21:30;;;;;;;16.23;14.07;;;19.80;99.90;;;;;;4977057;28;20461;-73
2023/06/25 01:24:00;;;;;;;19.33;15.13;;;19.70;99.90;;;;;;4977338;28;20847;-73
2023/06/25 01:26:27;;;;;;;14.20;12.67;;;19.70;99.90;;;;;;4985298;28;20893;-73
2023/06/25 01:28:55;;;;;;;16.17;14.47;;;19.70;99.90;;;;;;4981904;28;20445;-73
2023/06/25 01:31:25;;;;;;;14.73;13.23;;;19.80;99.90;;;;;;4971501;28;20951;-72
2023/06/25 01:33:52;;;;;;;18.70;13.97;;;19.80;99.90;;;;;;4979594;28;20880;-72
2023/06/25 01:36:19;;;;;;;15.90;13.73;;;19.90;99.90;;;;;;4974487;28;20460;-73
2023/06/25 01:38:46;;;;;;;19.60;16.83;;;19.80;99.90;;;;;;4980252;28;20487;-72
2023/06/25 01:41:15;;;;;;;16.13;14.53;;;19.80;99.90;;;;;;4979598;28;20441;-72
2023/06/25 01:43:42;;;;;;;17.30;14.30;;;19.70;99.90;;;;;;4976843;28;20486;-73
2023/06/25 01:46:09;;;;;;;18.83;15.20;;;19.60;99.90;;;;;;4984165;28;20453;-72
2023/06/25 01:48:36;;;;;;;16.90;14.50;;;19.60;99.90;;;;;;4977465;28;20787;-73
2023/06/25 01:51:03;;;;;;;15.67;14.03;;;19.50;99.90;;;;;;4983226;28;20457;-73
2023/06/25 01:53:30;;;;;;;18.80;15.53;;;19.50;99.90;;;;;;4977801;28;20475;-72
2023/06/25 01:55:57;;;;;;;25.70;15.67;;;19.50;99.90;;;;;;4981877;28;20491;-73
2023/06/25 01:58:25;;;;;;;18.13;14.30;;;19.50;99.90;;;;;;4974855;28;20959;-71
2023/06/25 02:00:52;;;;;;;18.13;16.20;;;19.40;99.90;;;;;;4978224;28;20893;-73
2023/06/25 02:03:19;;;;;;;19.60;16.87;;;19.40;99.90;;;;;;4987466;28;20563;-74
2023/06/25 02:05:46;;;;;;;20.37;14.67;;;19.40;99.90;;;;;;4978166;28;20959;-72
2023/06/25 02:08:13;;;;;;;17.50;15.20;;;19.40;99.90;;;;;;4982570;28;20449;-72
2023/06/25 02:10:39;;;;;;;19.07;17.13;;;19.40;99.90;;;;;;4982179;28;20437;-73
2023/06/25 02:13:06;;;;;;;18.97;16.33;;;19.40;99.90;;;;;;4982566;28;20986;-71
2023/06/25 02:15:34;;;;;;;19.40;16.97;;;19.40;99.90;;;;;;4979359;28;20455;-73
2023/06/25 02:18:01;;;;;;;24.50;18.83;;;19.50;99.90;;;;;;4985261;28;20458;-71
2023/06/25 02:20:28;;;;;;;23.50;19.40;;;19.40;99.90;;;;;;4979369;28;20508;-73
2023/06/25 02:22:55;;;;;;;21.20;19.00;;;19.50;99.90;;;;;;4983394;28;20478;-72
2023/06/25 02:25:23;;;;;;;23.20;18.60;;;19.40;99.90;;;;;;4985941;28;20445;-71
2023/06/25 02:27:49;;;;;;;20.13;17.63;;;19.30;99.90;;;;;;4982783;28;20442;-72
2023/06/25 02:30:16;;;;;;;20.37;18.27;;;19.30;99.90;;;;;;4977682;28;20471;-72
2023/06/25 02:32:45;;;;;;;19.23;16.87;;;19.30;99.90;;;;;;4983975;28;20821;-72
2023/06/25 02:35:11;;;;;;;20.43;18.43;;;19.40;99.90;;;;;;4977993;28;20894;-73
2023/06/25 02:37:38;;;;;;;20.97;18.77;;;19.50;99.90;;;;;;4978541;28;20449;-71
2023/06/25 02:40:06;;;;;;;21.17;18.57;;;19.40;99.90;;;;;;4983349;28;20469;-73
2023/06/25 02:42:33;;;;;;;24.97;20.03;;;19.40;99.90;;;;;;4983755;28;20469;-72
2023/06/25 02:45:00;;;;;;;19.87;17.90;;;19.40;99.90;;;;;;4983099;28;20455;-72
2023/06/25 02:47:27;;;;;;;19.93;18.00;;;19.40;99.90;;;;;;4979641;28;20882;-71
2023/06/25 02:49:55;;;;;;;21.57;18.77;;;19.40;99.90;;;;;;4982816;28;20449;-73
2023/06/25 02:52:22;;;;;;;21.30;18.87;;;19.30;99.90;;;;;;4980806;28;20843;-73
2023/06/25 02:54:49;;;;;;;23.57;20.80;;;19.40;99.90;;;;;;4981027;28;20456;-71
2023/06/25 02:57:16;;;;;;;23.10;20.20;;;19.30;99.90;;;;;;4985643;28;20454;-73
2023/06/25 02:59:43;;;;;;;21.90;18.20;;;19.30;99.90;;;;;;4982000;28;20496;-72
2023/06/25 03:02:10;;;;;;;20.30;18.20;;;19.30;99.90;;;;;;4981498;28;20839;-71
2023/06/25 03:04:37;;;;;;;23.93;19.03;;;19.30;99.90;;;;;;4982894;28;20544;-71
2023/06/25 03:07:06;;;;;;;19.30;17.30;;;19.30;99.90;;;;;;4982745;28;20456;-71
2023/06/25 03:09:33;;;;;;;18.40;16.37;;;19.30;99.90;;;;;;4994922;28;20520;-71
2023/06/25 03:12:00;;;;;;;19.87;17.77;;;19.20;99.90;;;;;;4980970;28;20470;-72
2023/06/25 03:14:26;;;;;;;21.33;18.23;;;19.30;99.90;;;;;;4978728;28;20889;-71
2023/06/25 03:16:53;;;;;;;22.33;18.37;;;19.20;99.90;;;;;;4985795;28;20548;-74
2023/06/25 03:19:20;;;;;;;22.80;20.33;;;19.30;99.90;;;;;;4981468;28;21033;-71
2023/06/25 03:21:47;;;;;;;23.87;21.13;;;19.30;99.90;;;;;;4978327;28;20463;-73
2023/06/25 03:24:15;;;;;;;24.67;21.93;;;19.30;99.90;;;;;;4979135;28;20984;-71
2023/06/25 03:26:42;;;;;;;23.20;19.23;;;19.30;99.90;;;;;;4984843;28;20560;-73
2023/06/25 03:29:09;;;;;;;23.27;20.70;;;19.30;99.90;;;;;;4978486;28;20920;-71
2023/06/25 03:31:36;;;;;;;23.20;20.37;;;19.30;99.90;;;;;;4982696;28;20446;-71
2023/06/25 03:34:02;;;;;;;22.77;20.27;;;19.30;99.90;;;;;;4980667;28;20484;-71
2023/06/25 03:36:29;;;;;;;24.50;19.87;;;19.30;99.90;;;;;;4978875;28;20493;-74
2023/06/25 03:38:57;;;;;;;22.47;20.10;;;19.40;99.90;;;;;;4982942;28;21442;-73
2023/06/25 03:41:25;;;;;;;22.30;19.50;;;19.40;99.90;;;;;;4983288;28;20482;-74
2023/06/25 03:43:52;;;;;;;25.77;20.70;;;19.50;99.90;;;;;;4979266;28;20897;-73
2023/06/25 03:46:19;;;;;;;20.50;18.40;;;19.50;99.90;;;;;;4979462;28;20541;-73
2023/06/25 03:48:46;;;;;;;24.53;21.93;;;19.60;99.90;;;;;;4982948;28;20485;-73
2023/06/25 03:51:13;;;;;;;21.67;18.60;;;19.60;99.90;;;;;;4983014;28;20456;-71
2023/06/25 03:53:40;;;;;;;22.20;19.97;;;19.60;99.90;;;;;;4981092;28;20503;-72
2023/06/25 03:56:07;;;;;;;22.37;19.83;;;19.60;99.90;;;;;;4983519;28;20542;-71
2023/06/25 03:58:36;;;;;;;22.80;20.43;;;19.60;99.90;;;;;;4982947;28;20455;-72
2023/06/25 04:01:03;;;;;;;23.53;20.90;;;19.70;99.90;;;;;;4978312;28;20477;-73
2023/06/25 04:03:30;;;;;;;22.87;20.47;;;19.80;99.90;;;;;;4980862;28;20883;-74
2023/06/25 04:05:56;;;;;;;32.57;19.90;;;19.90;99.90;;;;;;4979023;28;20453;-73
2023/06/25 04:08:23;;;;;;;23.80;19.77;;;20.20;99.90;;;;;;4986766;28;20451;-73
2023/06/25 04:10:50;;;;;;;24.33;19.30;;;20.70;99.90;;;;;;4981251;28;20543;-73
2023/06/25 04:13:17;;;;;;;21.13;18.93;;;21.20;99.90;;;;;;4980514;28;20511;-73
2023/06/25 04:15:45;;;;;;;20.77;18.57;;;21.70;99.90;;;;;;4981885;28;20537;-73
2023/06/25 04:18:12;;;;;;;21.13;16.73;;;22.20;99.90;;;;;;4979597;28;20457;-71
2023/06/25 04:20:39;;;;;;;20.73;18.63;;;22.70;99.90;;;;;;4979931;28;20515;-74
2023/06/25 04:23:06;;;;;;;18.33;16.47;;;23.30;99.90;;;;;;4983706;28;20535;-72
2023/06/25 04:25:35;;;;;;;20.80;17.00;;;23.80;99.90;;;;;;4979939;28;20496;-73
2023/06/25 04:28:02;;;;;;;19.93;18.03;;;24.30;99.90;;;;;;4981935;28;20449;-73
2023/06/25 04:30:28;;;;;;;19.40;15.73;;;24.70;99.90;;;;;;4983223;28;20512;-71
2023/06/25 04:32:56;;;;;;;17.53;15.83;;;25.10;99.90;;;;;;4981730;28;20470;-72
2023/06/25 04:35:23;;;;;;;17.33;15.53;;;25.60;99.90;;;;;;4983266;28;20441;-73
2023/06/25 04:37:50;;;;;;;20.33;16.20;;;26.00;99.90;;;;;;4974469;28;20446;-71
2023/06/25 04:40:18;;;;;;;20.37;17.17;;;26.30;99.90;;;;;;4978906;28;20471;-72
2023/06/25 04:42:45;;;;;;;21.30;17.83;;;26.70;99.90;;;;;;4979422;28;21033;-71
2023/06/25 04:45:13;;;;;;;16.60;15.00;;;27.10;99.90;;;;;;4981947;28;20444;-71
2023/06/25 04:47:40;;;;;;;21.43;15.53;;;27.40;99.90;;;;;;4981706;28;20952;-73
2023/06/25 04:50:09;;;;;;;19.50;17.50;;;27.60;98.50;;;;;;4981777;28;20460;-73
2023/06/25 04:52:36;;;;;;;18.43;16.40;;;27.80;97.50;;;;;;4979947;28;20484;-72
2023/06/25 04:55:03;;;;;;;15.93;14.33;;;28.20;96.20;;;;;;4981756;28;20831;-72
2023/06/25 04:57:30;;;;;;;17.70;16.00;;;28.50;95.50;;;;;;4980155;28;20512;-72
2023/06/25 04:59:57;;;;;;;17.73;16.00;;;28.90;94.50;;;;;;4976251;28;20491;-74
2023/06/25 05:02:23;;;;;;;17.80;15.90;;;29.30;93.20;;;;;;4990466;28;20527;-72
2023/06/25 05:04:51;;;;;;;17.27;15.60;;;29.50;92.40;;;;;;4992762;28;20481;-72
2023/06/25 05:07:20;;;;;;;16.47;14.87;;;29.90;91.70;;;;;;4977961;28;21053;-72
2023/06/25 05:09:46;;;;;;;16.90;15.17;;;30.20;91.00;;;;;;4981239;28;20488;-73
2023/06/25 05:12:13;;;;;;;16.53;14.07;;;30.50;90.50;;;;;;4978634;28;20538;-73
2023/06/25 05:14:40;;;;;;;15.73;14.30;;;30.80;90.00;;;;;;4980128;28;20480;-73
2023/06/25 05:17:07;;;;;;;14.30;13.00;;;30.90;88.50;;;;;;4983939;28;20473;-71
2023/06/25 05:19:34;;;;;;;18.27;14.60;;;31.10;88.30;;;;;;4981603;28;20456;-71
2023/06/25 05:22:01;;;;;;;16.83;15.13;;;31.20;87.50;;;;;;4983808;28;20944;-71
2023/06/25 05:24:29;;;;;;;15.33;13.87;;;31.40;87.10;;;;;;4981747;28;20972;-72
2023/06/25 05:26:56;;;;;;;14.40;12.87;;;31.70;85.90;;;;;;4985076;28;20452;-71
2023/06/25 05:29:23;;;;;;;15.40;13.97;;;32.10;84.60;;;;;;4989154;28;20922;-71
2023/06/25 05:31:50;;;;;;;14.90;13.50;;;32.00;83.90;;;;;;4980149;28;21012;-72
2023/06/25 05:34:17;;;;;;;15.40;13.80;;;32.00;83.80;;;;;;4988238;28;20543;-71
2023/06/25 05:36:44;;;;;;;14.63;13.13;;;32.20;82.70;;;;;;4983846;28;20454;-72
2023/06/25 05:39:10;;;;;;;14.47;12.90;;;32.20;82.50;;;;;;4981266;28;20963;-72
2023/06/25 05:41:41;;;;;;;15.30;13.73;;;32.40;81.70;;;;;;4983169;28;20566;-72
2023/06/25 05:44:08;;;;;;;14.47;13.00;;;32.20;81.00;;;;;;4980473;28;20471;-71
2023/06/25 05:46:37;;;;;;;14.03;12.60;;;32.40;81.60;;;;;;4978696;28;20437;-73
2023/06/25 05:49:04;;;;;;;15.00;13.20;;;32.90;80.60;;;;;;4984158;28;20809;-73
2023/06/25 05:51:31;;;;;;;13.30;11.87;;;33.20;79.40;;;;;;4982621;28;20885;-74
2023/06/25 05:53:58;;;;;;;14.73;12.13;;;33.40;80.00;;;;;;4981941;28;20990;-73
2023/06/25 05:56:25;;;;;;;13.03;11.83;;;33.60;78.50;;;;;;4983581;28;20447;-73
2023/06/25 05:58:53;;;;;;;13.40;12.00;;;33.90;77.20;;;;;;4984426;28;20863;-73
2023/06/25 06:01:21;;;;;;;11.23;9.10;;;34.00;76.80;;;;;;4980295;28;20580;-71
2023/06/25 06:03:48;;;;;;;12.77;11.50;;;34.60;75.90;;;;;;4979157;28;20932;-73
2023/06/25 06:06:16;;;;;;;14.50;13.10;;;35.00;74.60;;;;;;4980057;28;20529;-73
2023/06/25 06:08:43;;;;;;;10.90;9.87;;;35.50;73.00;;;;;;4983446;28;20442;-73
2023/06/25 06:11:10;;;;;;;13.40;12.07;;;35.90;71.80;;;;;;4981107;28;20533;-73
2023/06/25 06:13:37;;;;;;;11.43;10.33;;;36.00;70.90;;;;;;4985624;28;20468;-73
2023/06/25 06:16:06;;;;;;;11.03;10.13;;;35.90;70.70;;;;;;4984345;28;20470;-73
2023/06/25 06:18:32;;;;;;;13.13;11.93;;;36.30;70.30;;;;;;4987902;28;20449;-72
2023/06/25 06:20:59;;;;;;;13.20;11.87;;;36.40;69.50;;;;;;4984089;28;21013;-72
2023/06/25 06:49:17;;;;;;;11.60;10.43;;;36.80;66.50;;;;;;4971565;28;20466;-73
2023/06/25 06:51:44;;;;;;;10.20;9.10;;;36.60;66.70;;;;;;4974749;28;20870;-73
2023/06/25 06:54:11;;;;;;;11.77;10.60;;;36.40;66.50;;;;;;4977449;28;21252;-72
2023/06/25 06:56:38;;;;;;;11.03;10.03;;;36.80;66.40;;;;;;4974911;28;20817;-72
2023/06/25 06:59:05;;;;;;;10.27;9.37;;;37.10;66.20;;;;;;4978629;28;20456;-72
2023/06/25 07:01:33;;;;;;;10.67;9.77;;;37.20;65.30;;;;;;4980384;28;20490;-71
2023/06/25 07:04:00;;;;;;;11.27;10.47;;;37.70;64.70;;;;;;4973619;28;20487;-72
2023/06/25 07:06:28;;;;;;;10.87;9.97;;;37.60;64.60;;;;;;4978720;28;20488;-73
2023/06/25 07:08:58;;;;;;;12.63;11.53;;;37.60;65.50;;;;;;4972845;28;20528;-73
2023/06/25 07:11:26;;;;;;;11.10;10.07;;;37.60;64.80;;;;;;4968973;28;20446;-71
2023/06/25 07:13:53;;;;;;;9.47;8.60;;;37.40;64.40;;;;;;4973123;28;21003;-73
2023/06/25 07:16:19;;;;;;;11.60;10.50;;;37.60;64.90;;;;;;4977774;28;20452;-71
2023/06/25 07:18:46;;;;;;;12.00;10.90;;;37.90;63.90;;;;;;4974813;28;20463;-72
2023/06/25 07:21:13;;;;;;;11.17;10.27;;;37.60;63.70;;;;;;4975725;28;20575;-72
2023/06/25 07:23:42;;;;;;;11.17;10.17;;;36.30;66.20;;;;;;4975192;28;20461;-73
2023/06/25 07:26:09;;;;;;;10.70;9.80;;;36.30;65.70;;;;;;4972653;28;20454;-72
2023/06/25 07:28:36;;;;;;;11.93;9.20;;;36.10;66.80;;;;;;4971917;28;20827;-73
2023/06/25 07:31:03;;;;;;;10.77;9.77;;;36.60;66.30;;;;;;4970235;28;20468;-72
2023/06/25 07:33:30;;;;;;;9.00;8.10;;;37.30;65.90;;;;;;4972915;28;20473;-71
2023/06/25 07:35:57;;;;;;;10.40;9.40;;;37.60;64.30;;;;;;4972685;28;20438;-73
2023/06/25 07:38:24;;;;;;;9.20;8.33;;;38.10;63.20;;;;;;4967597;28;20447;-74
2023/06/25 07:40:55;;;;;;;9.10;8.30;;;38.50;62.30;;;;;;4967322;28;20482;-72
2023/06/25 07:43:22;;;;;;;9.40;8.50;;;38.80;61.50;;;;;;4972260;28;20825;-72
2023/06/25 07:45:49;;;;;;;10.43;9.53;;;38.80;61.00;;;;;;4970992;28;20528;-72
2023/06/25 07:48:17;;;;;;;9.13;8.43;;;38.70;61.40;;;;;;4971437;28;20530;-72
2023/06/25 07:50:44;;;;;;;10.30;7.80;;;38.50;61.50;;;;;;4972150;28;20445;-73
2023/06/25 07:53:11;;;;;;;8.87;7.97;;;38.40;62.20;;;;;;4974109;28;20472;-74
2023/06/25 07:55:40;;;;;;;10.70;9.70;;;38.30;61.90;;;;;;4972266;28;20454;-73
2023/06/25 07:58:10;;;;;;;9.67;8.70;;;38.20;61.60;;;;;;4975037;28;20445;-74
2023/06/25 08:00:37;;;;;;;7.87;7.17;;;38.10;62.40;;;;;;4990287;28;20481;-75
2023/06/25 08:03:04;;;;;;;8.70;7.90;;;38.50;61.90;;;;;;4977514;28;20475;-74
2023/06/25 08:05:31;;;;;;;8.30;7.40;;;37.70;62.10;;;;;;4979738;28;20524;-74
2023/06/25 08:07:58;;;;;;;7.97;7.37;;;37.60;63.30;;;;;;4975179;28;20457;-73
2023/06/25 08:10:25;;;;;;;7.40;6.90;;;38.00;62.90;;;;;;4970932;28;20560;-73
2023/06/25 08:12:52;;;;;;;8.20;7.50;;;38.30;61.20;;;;;;4972171;28;20470;-74
2023/06/25 08:15:21;;;;;;;7.43;6.87;;;38.70;59.80;;;;;;4969933;28;20456;-73
2023/06/25 08:17:48;;;;;;;8.23;7.53;;;38.80;60.20;;;;;;4970241;28;21117;-73
2023/06/25 08:20:33;;;;;;;8.50;7.67;;;38.80;59.60;;;;;;4968030;28;20540;-73
2023/06/25 08:23:00;;;;;;;9.30;8.57;;;38.70;60.70;;;;;;4973256;28;20465;-74
2023/06/25 08:25:27;;;;;;;8.40;7.53;;;39.20;60.80;;;;;;4969215;28;20454;-74
2023/06/25 08:27:54;;;;;;;10.27;9.27;;;39.10;60.10;;;;;;4970348;28;20446;-71
2023/06/25 08:30:22;;;;;;;8.67;7.83;;;38.70;60.50;;;;;;4966782;28;20537;-74
2023/06/25 08:32:49;;;;;;;9.77;8.97;;;39.10;60.50;;;;;;4971297;28;20480;-74
2023/06/25 08:35:16;;;;;;;7.90;7.20;;;39.10;59.70;;;;;;4972947;28;20819;-73
2023/06/25 08:37:43;;;;;;;7.93;7.23;;;39.40;59.60;;;;;;4971811;28;20445;-73
2023/06/25 08:40:12;;;;;;;8.30;7.50;;;39.60;57.70;;;;;;4969935;28;20814;-73
2023/06/25 08:42:42;;;;;;;7.83;7.23;;;39.30;58.70;;;;;;4973433;28;20896;-73
2023/06/25 08:45:10;;;;;;;8.47;7.73;;;40.00;58.10;;;;;;4972930;28;20507;-73
2023/06/25 08:47:40;;;;;;;8.70;8.00;;;40.00;57.90;;;;;;4979244;28;20469;-75
2023/06/25 08:50:09;;;;;;;8.60;6.77;;;39.80;57.70;;;;;;4971196;28;20446;-72
2023/06/25 08:52:38;;;;;;;9.63;7.43;;;40.20;57.70;;;;;;4967014;28;20470;-75
2023/06/25 08:55:10;;;;;;;6.80;6.30;;;40.20;57.40;;;;;;4975564;28;20457;-73
2023/06/25 08:57:37;;;;;;;7.70;7.10;;;40.80;56.10;;;;;;4975656;28;20464;-74
2023/06/25 09:00:04;;;;;;;6.80;6.27;;;40.80;55.70;;;;;;4976152;28;20464;-74
2023/06/25 09:02:31;;;;;;;9.50;8.80;;;40.00;55.70;;;;;;4976325;28;20603;-74
2023/06/25 09:05:05;;;;;;;7.47;6.87;;;39.30;56.20;;;;;;4977101;28;20449;-73
2023/06/25 09:07:34;;;;;;;11.00;8.30;;;39.20;57.70;;;;;;4979117;28;20525;-72
2023/06/25 09:10:02;;;;;;;7.83;7.20;;;38.60;58.30;;;;;;4979486;28;20955;-71
2023/06/25 09:12:29;;;;;;;7.93;7.20;;;38.60;58.90;;;;;;4978913;28;20528;-72
2023/06/25 09:14:57;;;;;;;8.27;7.50;;;38.30;58.00;;;;;;4979283;28;20541;-72
2023/06/25 09:17:24;;;;;;;8.53;7.73;;;38.20;59.10;;;;;;4985088;28;20492;-72
2023/06/25 09:19:52;;;;;;;11.53;10.57;;;38.20;58.70;;;;;;4986871;28;20485;-73
2023/06/25 09:22:21;;;;;;;7.40;6.80;;;38.40;58.60;;;;;;4981947;28;20474;-74
2023/06/25 09:24:49;;;;;;;7.63;7.03;;;38.60;58.60;;;;;;4985850;28;20955;-71
2023/06/25 09:27:20;;;;;;;9.47;7.53;;;38.50;58.40;;;;;;4977127;28;20452;-71
2023/06/25 09:29:47;;;;;;;8.47;7.20;;;37.90;58.50;;;;;;4975989;28;20533;-72
2023/06/25 09:32:14;;;;;;;7.80;7.20;;;37.10;59.00;;;;;;4986188;28;20458;-73
2023/06/25 09:34:42;;;;;;;8.40;7.60;;;36.90;59.20;;;;;;4975757;28;20920;-72
2023/06/25 09:37:09;;;;;;;8.30;7.60;;;36.60;59.60;;;;;;4972315;28;20528;-71
2023/06/25 09:39:37;;;;;;;8.60;7.80;;;37.00;58.80;;;;;;4970900;28;20461;-73
2023/06/25 09:42:07;;;;;;;7.67;7.07;;;36.90;59.80;;;;;;4970805;28;20491;-73
2023/06/25 09:44:36;;;;;;;8.27;7.57;;;37.40;60.40;;;;;;4974752;28;20481;-73
2023/06/25 09:47:07;;;;;;;8.40;7.57;;;37.80;59.40;;;;;;4972138;28;20850;-73
2023/06/25 09:49:34;;;;;;;8.43;7.73;;;38.00;59.00;;;;;;4974784;28;20928;-73
2023/06/25 09:52:09;;;;;;;9.10;8.30;;;38.20;58.20;;;;;;4975984;28;20837;-73
2023/06/25 09:54:40;;;;;;;8.67;7.97;;;37.20;59.00;;;;;;4977034;28;20925;-73
2023/06/25 09:57:10;;;;;;;8.73;8.03;;;36.90;59.60;;;;;;4976894;28;20545;-72
2023/06/25 09:59:37;;;;;;;8.30;7.60;;;36.10;60.20;;;;;;4972148;28;20480;-73
2023/06/25 10:02:07;;;;;;;9.20;7.60;;;34.80;62.80;;;;;;4974720;28;20469;-72
2023/06/25 10:04:35;;;;;;;8.80;7.90;;;34.00;64.30;;;;;;4979341;28;20847;-73
2023/06/25 10:07:04;;;;;;;8.90;8.10;;;33.60;65.30;;;;;;4974021;28;20528;-73
2023/06/25 10:09:30;;;;;;;8.63;7.93;;;33.10;66.30;;;;;;4977918;28;20450;-73
2023/06/25 10:11:59;;;;;;;7.03;6.53;;;33.60;66.00;;;;;;4974922;28;20442;-73
2023/06/25 10:14:26;;;;;;;7.73;7.03;;;34.50;63.40;;;;;;4972591;28;20476;-73
2023/06/25 10:16:54;;;;;;;8.57;7.63;;;35.50;60.60;;;;;;4968809;28;20457;-71
2023/06/25 10:19:21;;;;;;;7.10;6.50;;;35.90;61.50;;;;;;4975895;28;20541;-72
2023/06/25 10:22:00;;;;;;;8.73;8.03;;;36.00;60.40;;;;;;4973364;28;20498;-73
2023/06/25 10:24:37;;;;;;;9.03;8.13;;;35.60;60.00;;;;;;4971845;28;20469;-71
2023/06/25 10:27:06;;;;;;;8.30;7.53;;;35.00;61.50;;;;;;4976247;28;20441;-72
2023/06/25 10:29:40;;;;;;;8.30;7.50;;;34.90;63.90;;;;;;4971839;28;20955;-73
2023/06/25 10:32:07;;;;;;;8.43;7.70;;;34.90;63.30;;;;;;4967039;28;20450;-72
2023/06/25 10:34:37;;;;;;;7.77;7.07;;;35.50;62.00;;;;;;4971606;28;20446;-72
2023/06/25 10:37:05;;;;;;;8.57;7.87;;;35.90;62.00;;;;;;4976883;28;20460;-75
2023/06/25 10:39:39;;;;;;;8.30;7.60;;;35.90;60.50;;;;;;4974307;28;20446;-72
2023/06/25 10:42:08;;;;;;;7.63;6.90;;;35.60;61.90;;;;;;4978349;28;20851;-73
2023/06/25 10:44:35;;;;;;;9.13;8.23;;;35.00;62.20;;;;;;4973833;28;20477;-73
2023/06/25 10:47:03;;;;;;;7.13;6.53;;;34.60;64.60;;;;;;4972694;28;20456;-72
2023/06/25 10:49:30;;;;;;;8.70;7.90;;;34.40;63.50;;;;;;4974503;28;20454;-73
2023/06/25 10:51:59;;;;;;;7.87;7.20;;;34.00;64.00;;;;;;4974398;28;20456;-74
2023/06/25 10:54:27;;;;;;;7.13;6.57;;;33.70;62.90;;;;;;4974581;28;20971;-73
2023/06/25 10:56:55;;;;;;;8.20;7.40;;;33.30;63.80;;;;;;4975952;28;20476;-73
2023/06/25 10:59:26;;;;;;;8.13;7.43;;;33.00;65.40;;;;;;4984206;28;20496;-73
2023/06/25 11:01:53;;;;;;;7.07;6.47;;;33.00;65.20;;;;;;4974014;28;20485;-73
2023/06/25 11:04:19;;;;;;;8.90;7.27;;;33.00;66.10;;;;;;4973266;28;20469;-74
2023/06/25 11:06:46;;;;;;;7.80;7.20;;;33.00;65.10;;;;;;4974140;28;20453;-73
2023/06/25 11:09:13;;;;;;;8.93;8.13;;;32.30;66.10;;;;;;4975122;28;20450;-74
2023/06/25 11:11:40;;;;;;;8.17;7.40;;;31.80;68.10;;;;;;4971827;28;20520;-72
2023/06/25 11:14:07;;;;;;;8.17;7.40;;;31.70;68.90;;;;;;4972877;28;20557;-74
2023/06/25 11:16:45;;;;;;;9.00;7.37;;;31.90;69.40;;;;;;4972503;28;20464;-74
2023/06/25 11:19:12;;;;;;;7.60;6.60;;;31.70;68.80;;;;;;4974066;28;20449;-74
2023/06/25 11:21:38;;;;;;;6.57;6.03;;;31.80;68.40;;;;;;4972967;28;20456;-74
2023/06/25 11:24:09;;;;;;;8.00;7.30;;;31.80;65.50;;;;;;4973974;28;20470;-73
2023/06/25 11:26:40;;;;;;;8.50;7.80;;;32.10;67.30;;;;;;4971510;28;20460;-73
2023/06/25 11:29:07;;;;;;;8.00;7.30;;;32.30;66.30;;;;;;4969372;28;20449;-72
2023/06/25 11:31:48;;;;;;;8.03;7.33;;;32.10;65.90;;;;;;4973765;28;20438;-72
2023/06/25 11:34:21;;;;;;;9.50;8.40;;;32.00;67.10;;;;;;4974097;28;20837;-73
2023/06/25 11:36:48;;;;;;;9.10;8.30;;;31.80;67.60;;;;;;4967653;28;20772;-73
2023/06/25 11:39:16;;;;;;;8.60;7.90;;;31.90;67.20;;;;;;4973447;28;20456;-74
2023/06/25 11:41:44;;;;;;;7.67;7.07;;;32.10;66.80;;;;;;4972270;28;20442;-74
2023/06/25 11:44:17;;;;;;;8.37;7.57;;;32.00;66.00;;;;;;4968936;28;20930;-72
2023/06/25 11:46:46;;;;;;;6.93;6.33;;;32.00;66.80;;;;;;4972618;28;20516;-73
2023/06/25 11:49:13;;;;;;;7.53;6.83;;;31.80;66.20;;;;;;4973923;28;20512;-73
2023/06/25 11:51:40;;;;;;;8.27;7.53;;;31.70;66.70;;;;;;4977173;28;20445;-73
2023/06/25 11:54:07;;;;;;;6.83;6.23;;;31.30;67.80;;;;;;4973383;28;20466;-73
2023/06/25 11:56:34;;;;;;;7.30;6.60;;;31.40;68.90;;;;;;4974408;28;20449;-73
2023/06/25 11:59:00;;;;;;;7.77;7.07;;;31.50;67.60;;;;;;4972586;28;20805;-74
2023/06/25 12:01:29;;;;;;;7.93;7.23;;;31.70;67.50;;;;;;4972825;28;20445;-73
2023/06/25 12:03:57;;;;;;;8.20;7.40;;;31.80;67.10;;;;;;4973720;28;20489;-73
2023/06/25 12:06:24;;;;;;;8.23;7.53;;;31.80;67.30;;;;;;4971628;28;20501;-73
2023/06/25 12:08:52;;;;;;;7.60;6.80;;;31.60;67.80;;;;;;4970557;28;20442;-74
2023/06/25 12:11:19;;;;;;;7.60;7.00;;;31.50;68.30;;;;;;4973046;28;20457;-74
2023/06/25 12:13:46;;;;;;;7.60;6.97;;;31.40;69.80;;;;;;4972023;28;21006;-73
2023/06/25 12:16:13;;;;;;;6.17;5.67;;;31.30;69.20;;;;;;4976733;28;20441;-73
2023/06/25 12:18:40;;;;;;;6.50;5.97;;;31.20;68.20;;;;;;4973029;28;20449;-73
2023/06/25 12:21:08;;;;;;;6.80;6.20;;;31.20;67.80;;;;;;4968314;28;20450;-74
2023/06/25 12:23:35;;;;;;;8.40;7.50;;;31.10;66.90;;;;;;4971010;28;20569;-74
2023/06/25 12:26:02;;;;;;;6.30;5.80;;;31.00;68.60;;;;;;4971812;28;20437;-74
2023/06/25 12:28:29;;;;;;;7.97;7.37;;;31.20;68.90;;;;;;4973371;28;20442;-73
2023/06/25 12:30:56;;;;;;;7.80;7.10;;;31.20;68.30;;;;;;4972070;28;20445;-74
2023/06/25 12:33:22;;;;;;;7.30;6.50;;;31.40;69.50;;;;;;4968777;28;20471;-75
2023/06/25 12:35:49;;;;;;;7.10;6.50;;;31.40;67.80;;;;;;4969631;28;20493;-74
2023/06/25 12:38:18;;;;;;;7.67;6.50;;;31.40;67.80;;;;;;4974374;28;20532;-73
2023/06/25 12:40:46;;;;;;;7.60;6.67;;;31.40;68.70;;;;;;4973956;28;20453;-74
2023/06/25 12:43:13;;;;;;;7.23;6.60;;;31.50;68.30;;;;;;4974804;28;21003;-72
2023/06/25 12:45:41;;;;;;;6.60;6.00;;;31.50;68.20;;;;;;4973485;28;20453;-74
2023/06/25 12:48:08;;;;;;;6.20;5.60;;;31.40;68.70;;;;;;4973266;28;20458;-74
2023/06/25 12:50:35;;;;;;;7.43;6.83;;;31.20;68.70;;;;;;4976311;28;20520;-73
2023/06/25 12:53:02;;;;;;;6.70;6.10;;;30.80;69.50;;;;;;4993254;28;20476;-72
2023/06/25 12:55:30;;;;;;;7.60;7.00;;;30.80;69.70;;;;;;4991209;28;20990;-73
2023/06/25 12:57:57;;;;;;;7.03;6.43;;;30.80;69.70;;;;;;4996314;28;20413;-74
2023/06/25 13:00:24;;;;;;;10.57;5.97;;;30.60;70.00;;;;;;4992313;28;20442;-73
2023/06/25 13:02:50;;;;;;;7.53;6.93;;;30.50;70.20;;;;;;4992280;28;20533;-73
2023/06/25 13:05:17;;;;;;;7.30;6.63;;;30.50;70.70;;;;;;4997846;28;20454;-72